Time;durP1;ratioP1;P1;durP2;ratioP2;P2;SDS_P1;SDS_P2;PMS_P1;PMS_P2;Temp;Humidity;BMP_temperature;BMP_pressure;BME280_temperature;BME280_humidity;BME280_pressure;Samples;Min_cycle;Max_cycle;Signal;HPM_P1;HPM_P2
2022/08/22 00:01:18;;;;;;;72.97;53.70;;;;;;;21.17;40.17;100304.59;5059615;28;20088;-55
2022/08/22 00:03:49;;;;;;;78.90;57.42;;;;;;;21.17;40.08;100304.59;5057013;28;20025;-55
2022/08/22 00:06:29;;;;;;;72.05;55.30;;;;;;;20.88;40.20;100261.41;5058743;28;20029;-56
2022/08/22 00:09:01;;;;;;;85.65;57.10;;;;;;;21.07;40.04;100301.63;5062862;28;20032;-55
2022/08/22 00:11:52;;;;;;;76.43;57.20;;;;;;;20.77;40.38;100262.88;5045966;28;20021;-55
2022/08/22 00:14:21;;;;;;;76.53;56.95;;;;;;;21.08;39.97;100315.63;5063916;28;20021;-55
2022/08/22 00:17:23;;;;;;;78.47;57.97;;;;;;;21.04;40.55;100310.53;5055965;28;20094;-56
2022/08/22 00:20:01;;;;;;;81.53;58.60;;;;;;;21.04;40.33;100313.16;5047867;28;20033;-55
2022/08/22 00:23:04;;;;;;;84.18;60.78;;;;;;;20.94;40.52;100319.03;5058114;28;20221;-56
2022/08/22 00:25:39;;;;;;;82.15;61.53;;;;;;;20.95;40.62;100312.81;5078454;28;20036;-55
2022/08/22 00:28:30;;;;;;;84.72;63.55;;;;;;;21.06;40.35;100313.06;5068462;28;20060;-56
2022/08/22 00:31:23;;;;;;;80.60;63.47;;;;;;;21.02;40.54;100316.81;5046493;28;20049;-56
2022/08/22 00:34:21;;;;;;;88.72;65.53;;;;;;;20.69;40.44;100268.56;5060782;28;20047;-55
2022/08/22 00:37:08;;;;;;;77.28;62.95;;;;;;;21.12;40.45;100320.66;5072291;28;20036;-56
2022/08/22 00:39:42;;;;;;;90.45;64.25;;;;;;;21.01;40.40;100325.66;5063337;28;20139;-56
2022/08/22 00:42:44;;;;;;;80.20;62.58;;;;;;;21.02;40.77;100319.44;5047464;28;20064;-55
2022/08/22 00:45:24;;;;;;;86.03;61.58;;;;;;;21.18;40.62;100316.84;5084920;28;20032;-55
2022/08/22 00:48:14;;;;;;;80.32;60.40;;;;;;;21.25;40.32;100314.69;5065809;28;20033;-55
2022/08/22 00:50:56;;;;;;;78.63;60.63;;;;;;;21.26;40.38;100317.22;5066030;28;20199;-55
2022/08/22 00:53:53;;;;;;;87.03;64.93;;;;;;;21.08;40.75;100315.63;5066017;28;20036;-55
2022/08/22 00:57:09;;;;;;;84.75;63.00;;;;;;;21.16;40.34;100319.56;5065897;28;20035;-56
2022/08/22 00:59:56;;;;;;;81.13;58.70;;;;;;;21.26;40.96;100317.22;5023279;28;20041;-56
2022/08/22 01:02:30;;;;;;;83.90;63.95;;;;;;;21.13;40.64;100309.16;5083934;28;20209;-56
2022/08/22 01:05:22;;;;;;;82.05;64.70;;;;;;;21.08;40.59;100318.25;5053531;28;20040;-56
2022/08/22 01:07:56;;;;;;;87.30;64.60;;;;;;;21.18;40.86;100322.94;5054558;28;20037;-56
2022/08/22 01:10:43;;;;;;;79.20;60.72;;;;;;;20.93;40.94;100273.41;5067135;28;20033;-56
2022/08/22 01:13:11;;;;;;;80.45;59.85;;;;;;;21.26;41.51;100319.03;5085655;28;20028;-57
2022/08/22 01:15:39;;;;;;;80.18;59.80;;;;;;;21.21;40.92;100327.19;5081047;28;20098;-55
2022/08/22 01:18:23;;;;;;;87.25;65.43;;;;;;;21.10;41.35;100319.03;5065196;28;20050;-55
2022/08/22 01:21:12;;;;;;;84.03;64.07;;;;;;;21.06;40.96;100326.25;5064287;28;20264;-56
2022/08/22 01:24:05;;;;;;;78.80;60.33;;;;;;;21.16;41.39;100327.47;5063659;28;20033;-56
2022/08/22 01:26:46;;;;;;;80.47;60.60;;;;;;;21.16;40.95;100338.00;5054053;28;20217;-56
2022/08/22 01:29:40;;;;;;;85.30;64.22;;;;;;;21.03;41.13;100344.84;5064667;28;20025;-56
2022/08/22 01:32:47;;;;;;;78.70;59.22;;;;;;;21.18;41.26;100349.28;5045354;28;20050;-56
2022/08/22 01:35:26;;;;;;;73.97;59.03;;;;;;;20.95;41.84;100308.41;5045214;28;20052;-56
2022/08/22 01:38:10;;;;;;;74.28;57.90;;;;;;;21.18;42.86;100362.47;5043975;28;20029;-55
2022/08/22 01:40:51;;;;;;;79.05;61.70;;;;;;;21.05;43.33;100348.28;5056084;28;20045;-56
2022/08/22 01:43:28;;;;;;;81.85;61.63;;;;;;;20.85;44.83;100330.91;5064947;28;20064;-56
2022/08/22 01:46:00;;;;;;;79.70;60.17;;;;;;;20.43;45.00;100345.38;5064004;28;20079;-56
2022/08/22 01:49:01;;;;;;;73.60;59.17;;;;;;;20.26;45.71;100336.56;5064892;28;20341;-56
2022/08/22 01:51:52;;;;;;;75.90;57.92;;;;;;;20.44;46.96;100326.03;5052705;28;20033;-56
2022/08/22 01:54:29;;;;;;;76.80;58.03;;;;;;;20.22;49.38;100278.94;5063023;28;20337;-56
2022/08/22 01:57:02;;;;;;;76.70;57.05;;;;;;;20.48;48.36;100317.88;5044921;28;20056;-56
2022/08/22 01:59:44;;;;;;;78.38;58.50;;;;;;;20.22;49.07;100281.56;5043641;28;20071;-55
2022/08/22 02:02:28;;;;;;;76.18;57.22;;;;;;;20.44;48.62;100341.81;5043440;28;20052;-56
2022/08/22 02:05:04;;;;;;;72.47;58.05;;;;;;;20.06;48.18;100331.47;5059246;28;20208;-56
2022/08/22 02:07:45;;;;;;;77.32;58.15;;;;;;;20.33;48.16;100334.47;5064608;28;20033;-56
2022/08/22 02:10:19;;;;;;;79.07;58.63;;;;;;;20.24;48.81;100334.97;5055618;28;20314;-56
2022/08/22 02:12:48;;;;;;;76.10;59.08;;;;;;;20.07;49.03;100323.50;5044277;28;20347;-56
2022/08/22 02:15:13;;;;;;;80.65;59.63;;;;;;;20.04;49.56;100318.41;5056562;28;20047;-56
2022/08/22 02:18:05;;;;;;;74.55;56.30;;;;;;;20.24;49.64;100316.53;5084466;28;20325;-57
2022/08/22 02:21:04;;;;;;;73.47;57.28;;;;;;;20.11;50.22;100321.56;5036616;28;20063;-57
2022/08/22 02:23:42;;;;;;;71.38;53.75;;;;;;;20.27;50.04;100319.84;5083288;28;20036;-58
2022/08/22 02:26:27;;;;;;;77.63;60.13;;;;;;;20.20;50.03;100328.16;5084150;28;20324;-57
2022/08/22 02:28:57;;;;;;;80.10;57.65;;;;;;;20.15;49.31;100329.22;5061609;28;20092;-55
2022/08/22 02:31:41;;;;;;;74.97;55.75;;;;;;;20.12;49.57;100311.00;5073420;28;20040;-56
2022/08/22 02:34:37;;;;;;;75.68;55.28;;;;;;;20.37;49.57;100328.13;5084038;28;20024;-57
2022/08/22 02:37:47;;;;;;;78.22;60.65;;;;;;;20.28;49.31;100321.56;5068732;28;20242;-56
2022/08/22 02:40:24;;;;;;;75.07;55.08;;;;;;;20.39;48.56;100328.88;5051844;28;20063;-56
2022/08/22 02:42:56;;;;;;;72.93;57.53;;;;;;;20.27;48.04;100306.69;5063486;28;20043;-55
2022/08/22 02:46:04;;;;;;;69.00;54.45;;;;;;;20.37;48.85;100309.72;5051881;28;20030;-55
2022/08/22 02:48:43;;;;;;;70.95;54.00;;;;;;;20.16;49.77;100270.41;5041890;28;20045;-55
2022/08/22 02:51:41;;;;;;;76.95;56.00;;;;;;;20.15;48.57;100268.75;5041826;28;20387;-56
2022/08/22 02:54:35;;;;;;;72.22;53.58;;;;;;;20.32;47.89;100293.31;5061948;28;20075;-56
2022/08/22 02:57:14;;;;;;;71.03;53.92;;;;;;;20.38;46.98;100335.09;5061728;28;20040;-56
2022/08/22 03:00:17;;;;;;;70.30;54.13;;;;;;;20.44;48.18;100332.13;5078638;28;20040;-57
2022/08/22 03:02:55;;;;;;;74.18;55.72;;;;;;;20.43;46.72;100335.69;5061687;28;20029;-57
2022/08/22 03:05:36;;;;;;;76.63;56.28;;;;;;;20.34;46.67;100337.03;5052821;28;20078;-56
2022/08/22 03:08:11;;;;;;;79.95;58.00;;;;;;;20.16;47.12;100317.75;5061505;28;20057;-56
2022/08/22 03:10:46;;;;;;;79.95;60.22;;;;;;;19.83;46.72;100270.38;5053865;28;20021;-56
2022/08/22 03:13:32;;;;;;;81.43;60.55;;;;;;;19.79;46.57;100284.59;5061465;28;20052;-56
2022/08/22 03:16:05;;;;;;;80.78;58.78;;;;;;;20.10;46.67;100338.28;5061368;28;20121;-56
2022/08/22 03:18:51;;;;;;;77.60;60.95;;;;;;;19.80;46.82;100288.94;5060337;28;20053;-56
2022/08/22 03:21:32;;;;;;;79.78;60.10;;;;;;;20.21;46.70;100337.72;5063956;28;20025;-56
2022/08/22 03:24:13;;;;;;;82.15;63.17;;;;;;;20.11;46.50;100345.22;5082247;28;20103;-57
2022/08/22 03:26:55;;;;;;;89.03;61.58;;;;;;;20.20;46.33;100351.81;5043655;28;20037;-57
2022/08/22 03:29:35;;;;;;;83.75;63.45;;;;;;;20.06;47.06;100349.88;5058172;28;20032;-56
2022/08/22 03:32:07;;;;;;;86.30;62.72;;;;;;;20.10;46.81;100354.06;5072982;28;20024;-56
2022/08/22 03:34:34;;;;;;;86.85;64.70;;;;;;;20.11;46.64;100356.63;5083058;28;20095;-55
2022/08/22 03:37:32;;;;;;;81.25;62.58;;;;;;;19.81;46.80;100311.69;5070051;28;20025;-55
2022/08/22 03:40:21;;;;;;;84.72;66.53;;;;;;;20.04;47.29;100347.34;5043236;28;20068;-55
2022/08/22 03:43:05;;;;;;;83.05;65.40;;;;;;;20.20;46.76;100349.19;5043139;28;20048;-56
2022/08/22 03:46:08;;;;;;;81.63;66.35;;;;;;;20.15;46.86;100346.78;5042353;28;20025;-56
2022/08/22 03:48:53;;;;;;;87.93;68.53;;;;;;;19.95;46.83;100327.63;5048524;28;20083;-56
2022/08/22 03:51:31;;;;;;;88.72;68.82;;;;;;;19.97;47.23;100348.56;5081734;28;20023;-57
2022/08/22 03:54:16;;;;;;;97.22;73.43;;;;;;;19.94;47.29;100346.09;5043429;28;20318;-56
2022/08/22 03:56:41;;;;;;;97.03;75.60;;;;;;;19.81;47.37;100344.06;5043329;28;20222;-57
2022/08/22 03:59:44;;;;;;;95.35;75.60;;;;;;;19.89;47.11;100345.47;5062236;28;20333;-55
2022/08/22 04:02:09;;;;;;;105.63;78.18;;;;;;;19.91;47.22;100336.59;5051110;28;20209;-55
2022/08/22 04:05:03;;;;;;;104.43;81.40;;;;;;;19.84;47.01;100311.53;5045693;28;20088;-56
2022/08/22 04:07:50;;;;;;;102.10;78.70;;;;;;;20.05;46.94;100343.78;5056758;28;20032;-56
2022/08/22 04:10:24;;;;;;;107.20;83.32;;;;;;;19.89;47.32;100345.47;5066714;28;20028;-56
2022/08/22 04:13:11;;;;;;;108.13;82.70;;;;;;;20.01;47.66;100350.13;5066843;28;20025;-56
2022/08/22 04:15:51;;;;;;;108.95;85.68;;;;;;;19.91;47.58;100356.75;5066694;28;20029;-56
2022/08/22 04:18:43;;;;;;;111.05;86.30;;;;;;;19.72;48.00;100312.09;5067157;28;20044;-56
2022/08/22 04:21:49;;;;;;;114.03;86.87;;;;;;;20.06;47.62;100355.97;5086642;28;20375;-56
2022/08/22 04:24:26;;;;;;;110.55;86.47;;;;;;;20.32;47.11;100349.41;5046561;28;20038;-56
2022/08/22 04:27:07;;;;;;;118.93;90.53;;;;;;;19.94;47.25;100290.88;5046558;28;20314;-56
2022/08/22 04:29:46;;;;;;;115.93;88.20;;;;;;;20.30;47.58;100345.16;5072658;28;20059;-56
2022/08/22 04:32:21;;;;;;;114.25;88.47;;;;;;;20.14;47.30;100295.97;5066247;28;20044;-56
2022/08/22 04:34:53;;;;;;;119.80;89.93;;;;;;;20.28;47.66;100358.41;5065496;28;20318;-57
2022/08/22 04:37:46;;;;;;;112.25;91.03;;;;;;;20.12;47.93;100313.63;5065949;28;20028;-56
2022/08/22 04:40:36;;;;;;;116.10;92.22;;;;;;;20.33;47.61;100352.88;5058001;28;20140;-57
2022/08/22 04:43:26;;;;;;;130.80;96.88;;;;;;;20.37;48.08;100350.97;5046040;28;20041;-57
2022/08/22 04:46:01;;;;;;;120.82;95.07;;;;;;;20.15;47.98;100299.44;5045796;28;20164;-56
2022/08/22 04:48:39;;;;;;;121.22;95.90;;;;;;;20.55;47.73;100339.47;5054663;28;20367;-55
2022/08/22 04:51:30;;;;;;;131.57;100.25;;;;;;;20.24;47.98;100291.09;5045815;28;20037;-56
2022/08/22 04:54:37;;;;;;;119.67;92.97;;;;;;;20.69;47.83;100350.16;5046145;28;20052;-57
2022/08/22 04:57:18;;;;;;;131.18;101.65;;;;;;;20.42;47.86;100296.31;5052122;28;20288;-56
2022/08/22 04:59:44;;;;;;;121.82;99.95;;;;;;;20.67;48.34;100345.91;5062888;28;20341;-57
2022/08/22 05:02:18;;;;;;;127.00;100.07;;;;;;;20.88;47.94;100340.41;5049160;28;20116;-58
2022/08/22 05:04:57;;;;;;;131.15;104.35;;;;;;;20.99;47.67;100343.31;5070919;28;20092;-58
2022/08/22 05:07:35;;;;;;;128.52;101.25;;;;;;;20.81;47.78;100306.53;5054305;28;20033;-57
2022/08/22 05:10:21;;;;;;;132.38;105.18;;;;;;;21.11;47.75;100353.19;5059237;28;20232;-58
2022/08/22 05:13:00;;;;;;;136.48;107.72;;;;;;;20.92;47.83;100305.94;5056548;28;20041;-57
2022/08/22 05:15:32;;;;;;;128.23;100.00;;;;;;;21.37;48.24;100343.00;5045705;28;20022;-58
2022/08/22 05:18:05;;;;;;;143.85;112.07;;;;;;;20.87;47.60;100307.97;5052911;28;20313;-57
2022/08/22 05:20:32;;;;;;;137.55;105.75;;;;;;;21.32;47.16;100350.28;5082282;28;20254;-58
2022/08/22 05:23:12;;;;;;;139.38;113.07;;;;;;;20.96;47.16;100293.44;5085383;28;20028;-58
2022/08/22 05:25:42;;;;;;;138.30;109.57;;;;;;;21.02;47.47;100293.97;5063562;28;20049;-59
2022/08/22 05:28:33;;;;;;;135.05;114.03;;;;;;;21.36;47.50;100349.19;5051890;28;20074;-57
2022/08/22 05:31:04;;;;;;;133.75;111.32;;;;;;;21.17;47.57;100302.78;5063957;28;20392;-57
2022/08/22 05:33:37;;;;;;;143.95;114.07;;;;;;;21.26;47.56;100319.88;5065110;28;20318;-57
2022/08/22 05:36:08;;;;;;;150.07;120.35;;;;;;;21.36;47.53;100344.78;5065216;28;20095;-57
2022/08/22 05:38:43;;;;;;;144.68;116.20;;;;;;;21.16;47.23;100308.16;5064471;28;20033;-56
2022/08/22 05:41:15;;;;;;;142.85;118.07;;;;;;;21.23;47.55;100324.47;5065507;28;20223;-57
2022/08/22 05:43:44;;;;;;;147.32;119.97;;;;;;;21.27;47.54;100292.59;5063113;28;20025;-58
2022/08/22 05:46:24;;;;;;;151.68;122.78;;;;;;;21.18;47.49;100283.44;5064760;28;20033;-58
2022/08/22 05:49:01;;;;;;;144.88;118.05;;;;;;;21.64;47.56;100324.78;5064339;28;20066;-59
2022/08/22 05:51:42;;;;;;;157.35;123.47;;;;;;;21.20;47.44;100284.19;5062120;28;20047;-56
2022/08/22 05:54:13;;;;;;;166.50;127.40;;;;;;;21.11;47.96;100273.34;5060895;28;20049;-57
2022/08/22 05:56:47;;;;;;;153.13;126.82;;;;;;;21.34;47.78;100274.66;5064438;28;20033;-57
2022/08/22 05:59:27;;;;;;;148.85;123.18;;;;;;;21.89;47.62;100332.16;5085803;28;20033;-58
2022/08/22 06:01:55;;;;;;;160.07;128.43;;;;;;;21.94;47.70;100331.03;5061767;28;20021;-58
2022/08/22 06:04:29;;;;;;;165.43;127.85;;;;;;;22.13;47.24;100336.06;5063807;28;20032;-58
2022/08/22 06:07:17;;;;;;;154.43;126.93;;;;;;;22.24;46.98;100312.53;5062751;28;20143;-57
2022/08/22 06:10:11;;;;;;;159.68;122.35;;;;;;;22.28;47.04;100281.53;5063166;28;20100;-57
2022/08/22 06:12:49;;;;;;;168.60;137.65;;;;;;;22.64;46.25;100327.75;5062077;28;20024;-58
2022/08/22 06:15:22;;;;;;;164.38;131.15;;;;;;;22.79;45.86;100324.19;5061963;28;20322;-56
2022/08/22 06:18:03;;;;;;;155.27;127.20;;;;;;;22.97;46.59;100323.97;5064182;28;20311;-55
2022/08/22 06:20:36;;;;;;;;;;;;;;;23.01;45.60;100333.38;5061735;28;20024;-56
2022/08/22 06:23:02;;;;;;;174.70;136.98;;;;;;;22.93;44.88;100337.38;5050313;28;20216;-57
2022/08/22 06:25:34;;;;;;;167.57;130.60;;;;;;;23.18;45.40;100346.41;5044088;28;20250;-55
2022/08/22 06:28:05;;;;;;;165.43;137.48;;;;;;;23.05;45.34;100293.47;5043974;28;20049;-55
2022/08/22 06:30:34;;;;;;;167.98;132.23;;;;;;;23.13;45.31;100287.72;5064977;28;20025;-56
2022/08/22 06:33:15;;;;;;;172.25;141.57;;;;;;;23.39;44.98;100333.59;5083898;28;20091;-55
2022/08/22 06:39:22;;;;;;;184.02;146.00;;;;;;;23.22;45.48;100342.63;5044122;28;20029;-56
2022/08/22 06:42:04;;;;;;;171.80;139.80;;;;;;;23.38;45.04;100346.94;5051438;28;20057;-56
2022/08/22 06:44:58;;;;;;;170.05;136.07;;;;;;;23.38;45.17;100347.78;5047215;28;20330;-56
2022/08/22 06:47:37;;;;;;;162.43;132.52;;;;;;;23.18;43.92;100303.28;5057939;28;20075;-56
2022/08/22 06:50:13;;;;;;;166.23;132.70;;;;;;;23.22;44.37;100295.06;5077428;28;20040;-57
2022/08/22 06:52:56;;;;;;;162.95;127.95;;;;;;;23.57;43.63;100347.44;5083596;28;20139;-57
2022/08/22 06:55:25;;;;;;;149.40;121.82;;;;;;;23.66;43.73;100329.25;5074858;28;20037;-57
2022/08/22 06:57:57;;;;;;;158.43;123.63;;;;;;;23.57;43.45;100291.03;5065732;28;20028;-57
2022/08/22 07:00:24;;;;;;;152.90;122.15;;;;;;;23.88;43.18;100336.66;5061473;28;20045;-57
2022/08/22 07:03:09;;;;;;;149.43;121.38;;;;;;;23.76;42.56;100335.66;5055800;28;20032;-56
2022/08/22 07:05:38;;;;;;;147.65;119.93;;;;;;;24.03;42.99;100337.41;5060361;28;20048;-56
2022/08/22 07:08:14;;;;;;;145.98;115.28;;;;;;;23.96;43.37;100299.94;5052762;28;20029;-57
2022/08/22 07:10:46;;;;;;;140.25;115.63;;;;;;;23.92;42.42;100296.66;5050919;28;20088;-58
2022/08/22 07:13:18;;;;;;;151.30;121.93;;;;;;;24.29;42.92;100344.44;5042263;28;20125;-58
2022/08/22 07:15:50;;;;;;;;;;;;;;;24.29;41.97;100347.09;5043105;28;20033;-55
2022/08/22 07:18:20;;;;;;;151.00;120.22;;;;;;;24.48;42.09;100356.41;5062041;28;20140;-56
2022/08/22 07:20:53;;;;;;;140.55;112.38;;;;;;;24.57;41.87;100342.53;5043038;28;20029;-57
2022/08/22 07:23:39;;;;;;;137.43;113.72;;;;;;;24.73;42.54;100349.47;5042629;28;20026;-57
2022/08/22 07:26:13;;;;;;;149.32;120.38;;;;;;;24.47;41.55;100305.25;5042947;28;20036;-56
2022/08/22 07:28:39;;;;;;;148.82;122.20;;;;;;;24.78;41.33;100349.97;5046458;28;20055;-55
2022/08/22 07:31:32;;;;;;;144.70;117.35;;;;;;;24.79;41.02;100352.50;5050825;28;20025;-56
2022/08/22 07:34:22;;;;;;;147.50;120.30;;;;;;;24.95;41.18;100354.91;5062100;28;20043;-56
2022/08/22 07:37:00;;;;;;;149.82;123.47;;;;;;;24.91;41.09;100355.25;5042662;28;20329;-56
2022/08/22 07:39:43;;;;;;;156.35;124.57;;;;;;;24.92;40.90;100363.09;5042590;28;20310;-56
2022/08/22 07:42:12;;;;;;;144.43;122.00;;;;;;;24.96;41.28;100364.56;5043711;28;20044;-56
2022/08/22 07:44:58;;;;;;;156.23;123.53;;;;;;;25.04;41.11;100355.22;5055931;28;20340;-56
2022/08/22 07:47:33;;;;;;;161.18;127.13;;;;;;;25.03;41.09;100350.91;5042728;28;20021;-55
2022/08/22 07:50:05;;;;;;;163.32;130.88;;;;;;;24.88;41.09;100324.50;5042311;28;20104;-56
2022/08/22 07:52:39;;;;;;;152.23;125.72;;;;;;;25.03;41.68;100313.78;5052558;28;20087;-56
2022/08/22 07:55:22;;;;;;;156.50;128.60;;;;;;;25.40;41.32;100364.19;5056228;28;20307;-56
2022/08/22 07:58:07;;;;;;;157.18;131.13;;;;;;;25.27;40.57;100346.47;5059685;28;20043;-56
2022/08/22 08:00:39;;;;;;;160.93;130.77;;;;;;;25.30;40.58;100362.16;5042534;28;20325;-57
2022/08/22 08:03:08;;;;;;;151.23;127.82;;;;;;;25.16;40.55;100315.41;5042786;28;20033;-56
2022/08/22 08:05:37;;;;;;;152.65;125.80;;;;;;;25.56;40.55;100358.59;5077514;28;20383;-56
2022/08/22 08:08:10;;;;;;;149.23;119.82;;;;;;;25.66;40.67;100333.91;5055027;28;20109;-57
2022/08/22 08:10:38;;;;;;;140.63;116.20;;;;;;;25.79;41.20;100344.44;5051790;28;20032;-57
2022/08/22 08:13:10;;;;;;;146.32;116.55;;;;;;;25.59;41.25;100307.94;5057283;28;20097;-57
2022/08/22 08:15:38;;;;;;;143.77;120.25;;;;;;;25.92;41.00;100347.03;5045789;28;20026;-57
2022/08/22 08:18:10;;;;;;;150.90;118.38;;;;;;;25.95;40.24;100346.81;5042803;28;20318;-58
2022/08/22 08:20:36;;;;;;;149.00;123.30;;;;;;;25.88;39.94;100350.91;5047635;28;20040;-57
2022/08/22 08:23:05;;;;;;;135.25;114.10;;;;;;;25.86;39.94;100336.88;5063135;28;20047;-57
2022/08/22 08:25:36;;;;;;;145.77;120.60;;;;;;;25.75;39.80;100302.34;5062018;28;20218;-57
2022/08/22 08:30:58;;;;;;;131.32;108.68;;;;;;;26.10;39.81;100325.41;5048342;28;20037;-57
2022/08/22 08:33:28;;;;;;;138.88;118.38;;;;;;;26.08;39.49;100356.50;5050927;28;20096;-57
2022/08/22 08:36:08;;;;;;;146.25;118.40;;;;;;;25.84;39.74;100304.31;5055075;28;20021;-58
2022/08/22 08:38:45;;;;;;;133.30;112.43;;;;;;;26.40;39.80;100337.28;5059101;28;20308;-57
2022/08/22 08:41:35;;;;;;;145.98;117.85;;;;;;;26.38;39.52;100353.34;5054401;28;20352;-57
2022/08/22 08:44:48;;;;;;;134.35;107.03;;;;;;;26.36;38.74;100344.63;5057146;28;20051;-57
2022/08/22 08:47:33;;;;;;;126.43;100.60;;;;;;;26.65;37.98;100345.03;5046305;28;20045;-57
2022/08/22 08:50:10;;;;;;;118.70;95.78;;;;;;;26.62;37.46;100342.63;5064856;28;20025;-57
2022/08/22 08:53:00;;;;;;;118.05;93.15;;;;;;;26.58;37.14;100305.75;5065390;28;20210;-56
2022/08/22 08:56:06;;;;;;;115.13;93.75;;;;;;;26.72;37.37;100304.69;5057846;28;20021;-57
2022/08/22 08:58:46;;;;;;;106.53;86.93;;;;;;;26.89;36.48;100345.88;5062235;28;20166;-56
2022/08/22 09:01:39;;;;;;;114.32;87.90;;;;;;;26.83;36.01;100347.22;5060899;28;20327;-58
2022/08/22 09:04:23;;;;;;;110.50;87.43;;;;;;;27.00;36.57;100352.03;5075605;28;20337;-55
2022/08/22 09:06:57;;;;;;;102.80;84.68;;;;;;;27.11;36.53;100345.03;5048738;28;20052;-56
2022/08/22 09:09:38;;;;;;;102.32;81.18;;;;;;;27.26;37.40;100343.75;5047013;28;20253;-57
2022/08/22 09:12:06;;;;;;;109.27;86.30;;;;;;;27.08;36.18;100346.13;5045074;28;20069;-58
2022/08/22 09:14:52;;;;;;;115.85;89.35;;;;;;;27.09;36.03;100342.47;5078184;28;20477;-57
2022/08/22 09:17:20;;;;;;;110.85;87.93;;;;;;;27.16;36.38;100349.00;5060298;28;20044;-57
2022/08/22 09:20:15;;;;;;;105.63;82.30;;;;;;;27.49;37.05;100349.06;5049847;28;20033;-57
2022/08/22 09:23:11;;;;;;;109.63;88.70;;;;;;;27.57;36.53;100351.09;5044758;28;20025;-56
2022/08/22 09:26:00;;;;;;;114.85;92.05;;;;;;;27.28;35.32;100352.47;5044715;28;20025;-56
2022/08/22 09:28:37;;;;;;;121.55;93.78;;;;;;;26.97;36.80;100311.56;5043119;28;20270;-58
2022/08/22 09:31:26;;;;;;;114.97;93.25;;;;;;;27.62;37.22;100357.75;5064552;28;20025;-58
2022/08/22 09:33:55;;;;;;;115.13;88.22;;;;;;;27.59;36.33;100355.31;5061665;28;20061;-57
2022/08/22 09:36:30;;;;;;;109.95;87.95;;;;;;;27.78;36.63;100353.81;5055958;28;20250;-57
2022/08/22 09:39:16;;;;;;;102.88;85.68;;;;;;;27.45;36.08;100324.53;5046431;28;20265;-56
2022/08/22 09:42:01;;;;;;;95.85;75.40;;;;;;;27.74;35.93;100358.53;5044174;28;20040;-58
2022/08/22 09:44:51;;;;;;;96.25;74.65;;;;;;;27.99;35.87;100343.19;5053506;28;20033;-56
2022/08/22 09:47:42;;;;;;;95.22;76.57;;;;;;;28.07;35.47;100352.22;5049680;28;20092;-54
2022/08/22 09:50:13;;;;;;;;;;;;;;;28.06;35.67;100355.88;5064720;28;20032;-54
2022/08/22 09:53:06;;;;;;;86.28;72.65;;;;;;;28.07;36.26;100346.88;5064319;28;20106;-55
2022/08/22 09:56:00;;;;;;;99.90;75.38;;;;;;;27.88;36.24;100344.06;5055020;28;20029;-55
2022/08/22 09:58:36;;;;;;;91.55;72.53;;;;;;;27.95;36.43;100349.72;5058849;28;20066;-54
2022/08/22 10:01:14;;;;;;;88.07;69.32;;;;;;;28.01;36.21;100338.59;5075882;28;20044;-56
2022/08/22 10:04:18;;;;;;;86.57;68.95;;;;;;;28.14;35.65;100349.06;5047000;28;20024;-55
2022/08/22 10:06:50;;;;;;;82.82;64.47;;;;;;;27.93;36.30;100299.25;5056067;28;20095;-55
2022/08/22 10:09:27;;;;;;;90.90;66.72;;;;;;;28.23;36.14;100349.13;5063592;28;20178;-54
2022/08/22 10:12:02;;;;;;;82.88;64.35;;;;;;;28.00;36.19;100352.88;5044340;28;20104;-55
2022/08/22 10:14:39;;;;;;;92.05;66.75;;;;;;;28.23;36.00;100345.59;5050584;28;20099;-54
2022/08/22 10:17:17;;;;;;;81.32;64.95;;;;;;;28.15;35.96;100318.78;5061133;28;20037;-54
2022/08/22 10:19:57;;;;;;;80.10;64.43;;;;;;;28.28;36.05;100346.03;5071572;28;20035;-55
2022/08/22 10:23:10;;;;;;;83.55;62.92;;;;;;;28.20;36.10;100349.34;5069938;28;20045;-56
2022/08/22 10:25:47;;;;;;;85.80;66.07;;;;;;;28.07;35.88;100306.94;5042756;28;20069;-55
2022/08/22 10:28:24;;;;;;;84.97;67.45;;;;;;;28.34;35.75;100347.34;5048244;28;20229;-55
2022/08/22 10:30:50;;;;;;;85.47;64.78;;;;;;;28.46;35.93;100340.97;5065328;28;20037;-55
2022/08/22 10:33:48;;;;;;;89.80;66.15;;;;;;;28.38;35.80;100336.28;5083912;28;20052;-55
2022/08/22 10:36:30;;;;;;;87.25;65.63;;;;;;;28.29;35.78;100305.13;5043682;28;20230;-55
2022/08/22 10:38:58;;;;;;;82.72;63.28;;;;;;;28.67;36.26;100353.44;5043456;28;20226;-55
2022/08/22 10:41:37;;;;;;;75.13;60.75;;;;;;;28.62;35.40;100340.50;5054114;28;20284;-57
2022/08/22 10:44:20;;;;;;;67.53;54.00;;;;;;;28.55;35.11;100342.81;5075881;28;20041;-55
2022/08/22 10:47:11;;;;;;;68.70;51.08;;;;;;;28.53;35.30;100301.28;5066885;28;20056;-55
2022/08/22 10:49:48;;;;;;;52.57;43.00;;;;;;;28.81;34.86;100339.72;5063298;28;20069;-55
2022/08/22 10:52:26;;;;;;;57.90;46.13;;;;;;;28.81;35.26;100330.91;5058177;28;20218;-55
2022/08/22 10:54:56;;;;;;;61.40;46.67;;;;;;;28.90;35.40;100341.59;5049900;28;20016;-56
2022/08/22 10:57:43;;;;;;;66.97;49.37;;;;;;;28.84;35.11;100341.28;5063287;28;20029;-54
2022/08/22 11:00:42;;;;;;;62.13;48.67;;;;;;;28.72;35.30;100298.72;5043443;28;20438;-55
2022/08/22 11:03:14;;;;;;;61.15;45.50;;;;;;;28.81;34.03;100336.22;5025482;28;20048;-55
2022/08/22 11:05:46;;;;;;;61.45;45.05;;;;;;;28.80;34.04;100305.19;5051334;28;20092;-55
2022/08/22 11:08:31;;;;;;;57.13;43.80;;;;;;;29.02;34.42;100339.66;5046847;28;20052;-55
2022/08/22 11:11:02;;;;;;;62.13;47.25;;;;;;;29.00;34.65;100330.97;5057073;28;20339;-55
2022/08/22 11:13:39;;;;;;;54.55;43.50;;;;;;;28.89;34.09;100293.72;5054416;28;20025;-56
2022/08/22 11:16:09;;;;;;;53.28;39.42;;;;;;;29.01;33.56;100332.63;5052807;28;20036;-55
2022/08/22 11:19:13;;;;;;;51.13;37.88;;;;;;;29.20;33.88;100336.31;5060376;28;20281;-54
2022/08/22 11:22:02;;;;;;;50.83;37.03;;;;;;;29.08;33.01;100333.75;5057734;28;20119;-55
2022/08/22 11:24:30;;;;;;;51.20;37.15;;;;;;;29.07;32.98;100334.75;5063041;28;20064;-54
2022/08/22 11:27:17;;;;;;;48.65;34.80;;;;;;;29.09;32.36;100322.13;5062658;28;20068;-55
2022/08/22 11:29:56;;;;;;;45.05;32.15;;;;;;;29.02;32.71;100288.97;5062872;28;20025;-55
2022/08/22 11:32:33;;;;;;;42.58;29.83;;;;;;;29.28;32.01;100328.50;5048368;28;20025;-55
2022/08/22 11:35:03;;;;;;;42.78;29.42;;;;;;;29.03;32.34;100280.00;5052823;28;20083;-56
2022/08/22 11:37:46;;;;;;;39.72;32.42;;;;;;;29.36;32.61;100326.00;5057026;28;20033;-54
2022/08/22 11:40:56;;;;;;;43.75;32.47;;;;;;;29.12;32.07;100285.47;5054701;28;20055;-55
2022/08/22 11:43:46;;;;;;;42.35;34.60;;;;;;;29.46;32.84;100325.13;5057397;28;20228;-56
2022/08/22 11:46:28;;;;;;;40.47;31.38;;;;;;;29.15;31.58;100283.38;5056726;28;20329;-56
2022/08/22 11:49:14;;;;;;;41.85;28.88;;;;;;;29.39;31.76;100301.69;5058535;28;20028;-56
2022/08/22 11:52:08;;;;;;;38.10;26.65;;;;;;;29.48;31.76;100320.53;5060365;28;20021;-56
2022/08/22 11:54:48;;;;;;;28.50;24.10;;;;;;;29.07;31.25;100288.56;5059799;28;20059;-56
2022/08/22 11:57:39;;;;;;;32.25;23.63;;;;;;;28.95;31.21;100282.50;5042886;28;20029;-56
2022/08/22 12:00:14;;;;;;;34.83;25.75;;;;;;;29.27;32.31;100324.13;5042153;28;20041;-56
2022/08/22 12:02:51;;;;;;;38.92;28.02;;;;;;;29.20;31.98;100320.31;5075857;28;20077;-56
2022/08/22 12:05:33;;;;;;;35.85;27.52;;;;;;;29.15;32.10;100310.06;5082631;28;20035;-55
2022/08/22 12:08:07;;;;;;;41.03;28.02;;;;;;;29.18;32.20;100319.63;5061086;28;20033;-55
2022/08/22 12:10:40;;;;;;;37.72;26.60;;;;;;;29.17;32.32;100318.75;5042523;28;20072;-55
2022/08/22 12:13:07;;;;;;;32.95;27.08;;;;;;;29.16;32.40;100318.88;5042206;28;20033;-55